Time;durP1;ratioP1;P1;durP2;ratioP2;P2;SDS_P1;SDS_P2;PMS_P1;PMS_P2;Temp;Humidity;BMP_temperature;BMP_pressure;BME280_temperature;BME280_humidity;BME280_pressure;Samples;Min_cycle;Max_cycle;Signal;HPM_P1;HPM_P2
2021/06/05 00:01:43;;;;;;;16.17;11.38;;;;;;;;;;6243982;28;20042;-82
2021/06/05 00:04:45;;;;;;;14.88;11.90;;;;;;;;;;6216890;28;20046;-80
2021/06/05 00:07:47;;;;;;;16.25;12.00;;;;;;;;;;6208535;28;20805;-80
2021/06/05 00:10:55;;;;;;;15.30;11.40;;;;;;;;;;6229945;28;20033;-82
2021/06/05 00:14:00;;;;;;;13.50;10.77;;;;;;;;;;6229166;28;20815;-81
2021/06/05 00:17:01;;;;;;;15.10;11.82;;;;;;;;;;6216710;28;20056;-81
2021/06/05 00:20:11;;;;;;;16.38;12.07;;;;;;;;;;6205642;28;20073;-82
2021/06/05 00:23:17;;;;;;;17.83;13.20;;;;;;;;;;6192977;28;20488;-80
2021/06/05 00:26:20;;;;;;;19.65;12.50;;;;;;;;;;6206410;28;20080;-82
2021/06/05 00:29:22;;;;;;;18.50;12.98;;;;;;;;;;6191284;28;20071;-82
2021/06/05 00:32:23;;;;;;;16.00;11.98;;;;;;;;;;6206673;28;20058;-82
2021/06/05 00:35:28;;;;;;;15.63;12.23;;;;;;;;;;6212195;28;20037;-82
2021/06/05 00:38:30;;;;;;;17.48;12.10;;;;;;;;;;6215403;28;20049;-82
2021/06/05 00:41:32;;;;;;;14.45;9.90;;;;;;;;;;6190494;28;20674;-82
2021/06/05 00:44:34;;;;;;;13.90;11.48;;;;;;;;;;6190799;28;20046;-82
2021/06/05 00:47:36;;;;;;;12.32;10.02;;;;;;;;;;6191114;28;20039;-82
2021/06/05 00:50:40;;;;;;;16.95;12.18;;;;;;;;;;6213598;28;20490;-82
2021/06/05 00:53:47;;;;;;;14.20;11.05;;;;;;;;;;6215123;28;20796;-82
2021/06/05 00:56:53;;;;;;;14.07;12.05;;;;;;;;;;6206772;28;20049;-81
2021/06/05 00:59:54;;;;;;;14.57;11.75;;;;;;;;;;6214549;28;20049;-80
2021/06/05 01:02:59;;;;;;;14.48;11.55;;;;;;;;;;6214348;28;20519;-81
2021/06/05 01:06:36;;;;;;;14.73;11.77;;;;;;;;;;6179865;28;20054;-83
2021/06/05 01:09:59;;;;;;;13.77;11.20;;;;;;;;;;6192234;28;20612;-82
2021/06/05 01:13:21;;;;;;;15.18;10.68;;;;;;;;;;6223235;28;20099;-83
2021/06/05 01:16:25;;;;;;;12.80;10.20;;;;;;;;;;6239300;28;20045;-82
2021/06/05 01:19:49;;;;;;;17.92;11.77;;;;;;;;;;6212054;28;20049;-81
2021/06/05 01:23:02;;;;;;;15.38;12.23;;;;;;;;;;6205777;28;20053;-82
2021/06/05 01:26:16;;;;;;;19.48;13.20;;;;;;;;;;6206517;28;20046;-82
2021/06/05 01:29:25;;;;;;;15.20;11.73;;;;;;;;;;6206170;28;20126;-82
2021/06/05 01:32:29;;;;;;;13.32;10.70;;;;;;;;;;6219137;28;20056;-82
2021/06/05 01:35:33;;;;;;;15.02;9.93;;;;;;;;;;6222772;28;20498;-81
2021/06/05 01:38:40;;;;;;;18.38;11.90;;;;;;;;;;6220190;28;20129;-82
2021/06/05 01:41:45;;;;;;;18.55;13.10;;;;;;;;;;6213919;28;20052;-82
2021/06/05 01:44:52;;;;;;;17.23;13.25;;;;;;;;;;6252413;28;20047;-81
2021/06/05 01:47:56;;;;;;;15.93;12.50;;;;;;;;;;6217578;28;20414;-82
2021/06/05 01:51:03;;;;;;;18.20;12.85;;;;;;;;;;6211487;28;20129;-81
2021/06/05 01:54:15;;;;;;;19.25;13.02;;;;;;;;;;6215094;28;20501;-83
2021/06/05 01:57:24;;;;;;;18.17;12.90;;;;;;;;;;6240787;28;20053;-82
2021/06/05 02:00:37;;;;;;;15.40;12.43;;;;;;;;;;6238967;28;20059;-83
2021/06/05 02:03:42;;;;;;;16.67;11.98;;;;;;;;;;6238985;28;20097;-82
2021/06/05 02:06:56;;;;;;;14.23;10.68;;;;;;;;;;6242035;28;20637;-83
2021/06/05 02:09:57;;;;;;;14.48;11.70;;;;;;;;;;6240249;28;20049;-82
2021/06/05 02:13:12;;;;;;;16.75;11.93;;;;;;;;;;6233077;28;20241;-83
2021/06/05 02:16:35;;;;;;;24.25;13.23;;;;;;;;;;6219314;28;20057;-83
2021/06/05 02:19:41;;;;;;;16.30;11.63;;;;;;;;;;6227494;28;20062;-82
2021/06/05 02:23:17;;;;;;;14.73;12.00;;;;;;;;;;6218878;28;20042;-82
2021/06/05 02:26:22;;;;;;;15.40;11.82;;;;;;;;;;6193246;28;20129;-83
2021/06/05 02:29:31;;;;;;;15.13;11.43;;;;;;;;;;6178504;28;20404;-82
2021/06/05 02:32:37;;;;;;;14.98;12.00;;;;;;;;;;6202048;28;20103;-83
2021/06/05 02:35:43;;;;;;;17.55;12.23;;;;;;;;;;6257117;28;20040;-83
2021/06/05 02:38:55;;;;;;;14.80;11.80;;;;;;;;;;6247351;28;20052;-83
2021/06/05 02:42:06;;;;;;;15.57;11.07;;;;;;;;;;6241038;28;20136;-83
2021/06/05 02:45:15;;;;;;;14.13;11.18;;;;;;;;;;6240941;28;20042;-83
2021/06/05 02:48:17;;;;;;;15.57;11.00;;;;;;;;;;6233804;28;20662;-82
2021/06/05 02:51:22;;;;;;;15.32;11.88;;;;;;;;;;6215253;28;20052;-83
2021/06/05 02:54:26;;;;;;;13.88;10.90;;;;;;;;;;6268657;28;20037;-83
2021/06/05 02:57:28;;;;;;;15.13;11.47;;;;;;;;;;6270689;28;20049;-83
2021/06/05 03:00:51;;;;;;;16.25;11.32;;;;;;;;;;6255615;28;20435;-81
2021/06/05 03:03:54;;;;;;;14.15;11.15;;;;;;;;;;6248588;28;20062;-83
2021/06/05 03:06:56;;;;;;;16.15;11.98;;;;;;;;;;6204832;28;20053;-82
2021/06/05 03:09:59;;;;;;;17.63;12.80;;;;;;;;;;6223015;28;20069;-82
2021/06/05 03:13:03;;;;;;;20.45;14.32;;;;;;;;;;6204719;28;20521;-83
2021/06/05 03:16:06;;;;;;;21.92;13.77;;;;;;;;;;6221059;28;20430;-82
2021/06/05 03:19:14;;;;;;;23.23;14.68;;;;;;;;;;6227312;28;20447;-81
2021/06/05 03:22:18;;;;;;;28.45;13.88;;;;;;;;;;6243565;28;20046;-82
2021/06/05 03:25:27;;;;;;;50.17;15.20;;;;;;;;;;6201180;28;20520;-82
2021/06/05 03:28:33;;;;;;;70.65;15.27;;;;;;;;;;6259317;28;20049;-81
2021/06/05 03:31:34;;;;;;;60.10;15.27;;;;;;;;;;6242325;28;20081;-82
2021/06/05 03:34:37;;;;;;;33.95;14.35;;;;;;;;;;6227934;28;20176;-82
2021/06/05 03:37:42;;;;;;;66.13;14.82;;;;;;;;;;6231821;28;20045;-82
2021/06/05 03:40:44;;;;;;;55.38;14.52;;;;;;;;;;6228673;28;20049;-83
2021/06/05 03:43:47;;;;;;;;;;;;;;;;;;6233617;28;20044;-83
2021/06/05 03:46:48;;;;;;;33.80;13.73;;;;;;;;;;6219644;28;20031;-82
2021/06/05 03:49:52;;;;;;;45.90;13.77;;;;;;;;;;6217260;28;20042;-82
2021/06/05 03:52:55;;;;;;;40.05;14.52;;;;;;;;;;6217244;28;20042;-82
2021/06/05 03:56:00;;;;;;;28.42;15.23;;;;;;;;;;6237506;28;20071;-83
2021/06/05 03:59:02;;;;;;;26.20;14.48;;;;;;;;;;6243505;28;20079;-83
2021/06/05 04:02:04;;;;;;;22.70;13.38;;;;;;;;;;6238192;28;20128;-82
2021/06/05 04:05:07;;;;;;;50.80;15.30;;;;;;;;;;6218611;28;20221;-83
2021/06/05 04:08:11;;;;;;;55.38;12.73;;;;;;;;;;6216965;28;20052;-83
2021/06/05 04:11:13;;;;;;;33.97;11.75;;;;;;;;;;6217616;28;20046;-82
2021/06/05 04:14:14;;;;;;;35.67;12.13;;;;;;;;;;6216034;28;20069;-82
2021/06/05 04:17:16;;;;;;;20.42;10.85;;;;;;;;;;6242032;28;20053;-82
2021/06/05 04:20:18;;;;;;;17.97;11.00;;;;;;;;;;6245046;28;20046;-82
2021/06/05 04:23:21;;;;;;;21.13;12.15;;;;;;;;;;6231400;28;20827;-82
2021/06/05 04:26:24;;;;;;;24.98;13.27;;;;;;;;;;6248364;28;20120;-81
2021/06/05 04:29:25;;;;;;;24.95;14.52;;;;;;;;;;6232813;28;20140;-81
2021/06/05 04:32:27;;;;;;;57.55;13.07;;;;;;;;;;6206250;28;20129;-82
2021/06/05 04:35:29;;;;;;;58.60;12.25;;;;;;;;;;6223402;28;20056;-81
2021/06/05 04:38:31;;;;;;;52.67;11.82;;;;;;;;;;6221864;28;20411;-82
2021/06/05 04:41:33;;;;;;;21.50;10.93;;;;;;;;;;6190287;28;20047;-82
2021/06/05 04:44:35;;;;;;;24.73;10.70;;;;;;;;;;6190894;28;20118;-82
2021/06/05 04:47:36;;;;;;;36.75;11.75;;;;;;;;;;6200084;28;20546;-83
2021/06/05 04:50:39;;;;;;;55.28;12.05;;;;;;;;;;6241829;28;20052;-82
2021/06/05 04:53:41;;;;;;;;;;;;;;;;;;6238999;28;20049;-81
2021/06/05 04:56:49;;;;;;;54.85;10.27;;;;;;;;;;6216301;28;19922;-81
2021/06/05 04:59:50;;;;;;;25.60;10.40;;;;;;;;;;6216642;28;20133;-83
2021/06/05 05:02:53;;;;;;;18.80;9.02;;;;;;;;;;6234484;28;20050;-82
2021/06/05 05:06:02;;;;;;;;;;;;;;;;;;6225197;28;20052;-83
2021/06/05 05:09:07;;;;;;;21.33;10.50;;;;;;;;;;6241265;28;19921;-83
2021/06/05 05:12:09;;;;;;;18.30;9.82;;;;;;;;;;6241728;28;20091;-83
2021/06/05 05:15:11;;;;;;;19.80;9.63;;;;;;;;;;6226685;28;20810;-83
2021/06/05 05:18:14;;;;;;;14.93;8.90;;;;;;;;;;6233340;28;20475;-82
2021/06/05 05:21:17;;;;;;;25.52;10.00;;;;;;;;;;6207033;28;20412;-81
2021/06/05 05:24:19;;;;;;;19.40;10.73;;;;;;;;;;6200426;28;20517;-83
2021/06/05 05:27:21;;;;;;;30.70;11.60;;;;;;;;;;6219441;28;20101;-82
2021/06/05 05:30:32;;;;;;;16.50;11.02;;;;;;;;;;6216022;28;20091;-83
2021/06/05 05:33:39;;;;;;;15.15;9.57;;;;;;;;;;6226881;28;20103;-80
2021/06/05 05:36:41;;;;;;;14.35;9.73;;;;;;;;;;6239902;28;20383;-81
2021/06/05 05:39:43;;;;;;;14.35;8.25;;;;;;;;;;6256284;28;20202;-81
2021/06/05 05:42:45;;;;;;;12.18;8.95;;;;;;;;;;6265682;28;20037;-81
2021/06/05 05:45:47;;;;;;;11.20;7.97;;;;;;;;;;6261231;28;20083;-81
2021/06/05 05:48:49;;;;;;;8.43;6.82;;;;;;;;;;6243198;28;20175;-81
2021/06/05 05:51:51;;;;;;;9.65;7.43;;;;;;;;;;6264189;28;20120;-82
2021/06/05 05:54:52;;;;;;;7.18;6.47;;;;;;;;;;6263886;28;20049;-81
2021/06/05 05:57:54;;;;;;;7.53;6.15;;;;;;;;;;6240433;28;20042;-82
2021/06/05 06:00:56;;;;;;;5.13;4.63;;;;;;;;;;6240650;28;20148;-82
2021/06/05 06:03:59;;;;;;;5.20;4.70;;;;;;;;;;6239934;28;20046;-82
2021/06/05 06:07:00;;;;;;;8.25;6.97;;;;;;;;;;6240935;28;20048;-83
2021/06/05 06:10:04;;;;;;;8.10;6.15;;;;;;;;;;6218580;28;20057;-82
2021/06/05 06:13:06;;;;;;;7.90;6.97;;;;;;;;;;6199594;28;20085;-82
2021/06/05 06:16:10;;;;;;;;;;;;;;;;;;6193468;28;20054;-82
2021/06/05 06:19:13;;;;;;;6.20;5.60;;;;;;;;;;6183560;28;19925;-82
2021/06/05 06:22:15;;;;;;;8.07;6.53;;;;;;;;;;6212926;28;20069;-82
2021/06/05 06:25:23;;;;;;;6.07;5.20;;;;;;;;;;6227075;28;20080;-81
2021/06/05 06:28:29;;;;;;;4.82;4.30;;;;;;;;;;6219015;28;20046;-81
2021/06/05 06:31:31;;;;;;;4.45;3.90;;;;;;;;;;6222552;28;20054;-80
2021/06/05 06:34:34;;;;;;;4.83;4.20;;;;;;;;;;6229807;28;20103;-81
2021/06/05 06:37:39;;;;;;;3.72;3.42;;;;;;;;;;6208173;28;20041;-81
2021/06/05 06:40:41;;;;;;;4.10;3.70;;;;;;;;;;6232991;28;20434;-80
2021/06/05 06:43:43;;;;;;;4.30;3.08;;;;;;;;;;6228319;28;20048;-81
2021/06/05 06:46:48;;;;;;;3.60;3.30;;;;;;;;;;6239641;28;20053;-81
2021/06/05 06:49:50;;;;;;;3.35;3.05;;;;;;;;;;6238225;28;20128;-81
2021/06/05 06:52:52;;;;;;;3.72;3.33;;;;;;;;;;6230881;28;20399;-80
2021/06/05 06:55:53;;;;;;;5.22;3.30;;;;;;;;;;6237042;28;20383;-81
2021/06/05 06:58:55;;;;;;;3.92;3.55;;;;;;;;;;6244401;28;20046;-82
2021/06/05 07:01:57;;;;;;;3.35;2.97;;;;;;;;;;6223389;28;20061;-82
2021/06/05 07:04:58;;;;;;;9.45;8.55;;;;;;;;;;6232030;28;20075;-81
2021/06/05 07:08:08;;;;;;;13.68;11.55;;;;;;;;;;6240739;28;20545;-81
2021/06/05 07:11:13;;;;;;;11.40;7.07;;;;;;;;;;6238974;28;20053;-80
2021/06/05 07:14:15;;;;;;;9.75;8.68;;;;;;;;;;6227027;28;20041;-80
2021/06/05 07:17:18;;;;;;;7.78;5.97;;;;;;;;;;6229260;28;20056;-81
2021/06/05 07:20:19;;;;;;;7.22;6.10;;;;;;;;;;6234255;28;20049;-81
2021/06/05 07:23:24;;;;;;;4.07;3.67;;;;;;;;;;6232739;28;20409;-81
2021/06/05 07:26:28;;;;;;;4.28;3.88;;;;;;;;;;6226590;28;20438;-82
2021/06/05 07:29:29;;;;;;;4.78;4.10;;;;;;;;;;6226145;28;20117;-81
2021/06/05 07:32:31;;;;;;;4.60;3.92;;;;;;;;;;6214941;28;20410;-81
2021/06/05 07:35:33;;;;;;;4.20;3.80;;;;;;;;;;6266816;28;20889;-81
2021/06/05 07:38:37;;;;;;;4.40;3.45;;;;;;;;;;6242559;28;20080;-80
2021/06/05 07:41:41;;;;;;;4.88;3.50;;;;;;;;;;6267183;28;20040;-81
2021/06/05 07:44:45;;;;;;;5.35;3.53;;;;;;;;;;6268551;28;20172;-78
2021/06/05 07:47:52;;;;;;;4.10;3.80;;;;;;;;;;6240395;28;20037;-80
2021/06/05 07:50:54;;;;;;;5.00;3.97;;;;;;;;;;6244496;28;20048;-80
2021/06/05 07:53:56;;;;;;;4.18;3.88;;;;;;;;;;6233007;28;20171;-81
2021/06/05 07:56:57;;;;;;;5.00;4.60;;;;;;;;;;6248187;28;20510;-81
2021/06/05 08:00:01;;;;;;;5.22;4.35;;;;;;;;;;6255255;28;20407;-81
2021/06/05 08:03:13;;;;;;;4.72;4.32;;;;;;;;;;6205310;28;20107;-80
2021/06/05 08:06:15;;;;;;;5.25;4.45;;;;;;;;;;6220232;28;20708;-81
2021/06/05 08:09:16;;;;;;;4.80;3.80;;;;;;;;;;6208535;28;20042;-81
2021/06/05 08:12:18;;;;;;;4.55;4.15;;;;;;;;;;6209730;28;20076;-81
2021/06/05 08:15:24;;;;;;;5.28;4.78;;;;;;;;;;6210760;28;20050;-82
2021/06/05 08:18:25;;;;;;;6.47;4.20;;;;;;;;;;6225211;28;20050;-81
2021/06/05 08:21:27;;;;;;;25.45;22.55;;;;;;;;;;6212759;28;20049;-82
2021/06/05 08:24:28;;;;;;;13.20;11.80;;;;;;;;;;6213585;28;20052;-81
2021/06/05 08:27:30;;;;;;;6.18;5.63;;;;;;;;;;6238348;28;20056;-81
2021/06/05 08:30:38;;;;;;;26.02;22.77;;;;;;;;;;6237323;28;20045;-80
2021/06/05 08:33:40;;;;;;;13.55;12.07;;;;;;;;;;6219245;28;20406;-82
2021/06/05 08:36:43;;;;;;;130.65;116.78;;;;;;;;;;6245246;28;20049;-83
2021/06/05 08:39:45;;;;;;;9.93;9.02;;;;;;;;;;6241476;28;20121;-83
2021/06/05 08:42:49;;;;;;;112.20;100.73;;;;;;;;;;6266709;28;20665;-82
2021/06/05 08:45:51;;;;;;;53.08;48.00;;;;;;;;;;6249634;28;20135;-83
2021/06/05 08:48:57;;;;;;;10.57;9.48;;;;;;;;;;6237232;28;20514;-82
2021/06/05 08:52:06;;;;;;;11.68;10.48;;;;;;;;;;6221446;28;20034;-83
2021/06/05 08:55:23;;;;;;;9.65;5.95;;;;;;;;;;6235740;28;20111;-81
2021/06/05 08:58:31;;;;;;;10.10;9.07;;;;;;;;;;6244869;28;20123;-82
2021/06/05 09:01:41;;;;;;;5.65;5.18;;;;;;;;;;6247065;28;20198;-80
2021/06/05 09:04:43;;;;;;;12.07;10.95;;;;;;;;;;6227437;28;20048;-81
2021/06/05 09:07:45;;;;;;;68.10;55.55;;;;;;;;;;6260247;28;20048;-82
2021/06/05 09:10:47;;;;;;;40.70;36.78;;;;;;;;;;6257548;28;20100;-82
2021/06/05 09:13:49;;;;;;;8.32;7.43;;;;;;;;;;6260371;28;20523;-83
2021/06/05 09:16:52;;;;;;;12.02;8.20;;;;;;;;;;6250025;28;20136;-85
2021/06/05 09:20:04;;;;;;;13.15;11.63;;;;;;;;;;6253492;28;20383;-82
2021/06/05 09:23:35;;;;;;;11.38;9.25;;;;;;;;;;6278700;28;20053;-83
2021/06/05 09:26:37;;;;;;;76.20;67.95;;;;;;;;;;6237291;28;20368;-82
2021/06/05 09:30:03;;;;;;;14.27;12.23;;;;;;;;;;6235017;28;20130;-82
2021/06/05 09:33:09;;;;;;;36.75;30.83;;;;;;;;;;6248071;28;20529;-83
2021/06/05 09:36:29;;;;;;;75.75;55.00;;;;;;;;;;6241113;28;20045;-83
2021/06/05 09:39:43;;;;;;;15.02;11.63;;;;;;;;;;6237166;28;20140;-82
2021/06/05 09:42:52;;;;;;;18.35;13.27;;;;;;;;;;6235322;28;20129;-84
2021/06/05 09:46:07;;;;;;;14.50;12.13;;;;;;;;;;6238709;28;20061;-82
2021/06/05 09:49:34;;;;;;;15.80;12.98;;;;;;;;;;6239496;28;20491;-82
2021/06/05 09:52:36;;;;;;;20.08;15.70;;;;;;;;;;6230656;28;20051;-83
2021/06/05 09:55:38;;;;;;;15.27;11.55;;;;;;;;;;6244779;28;20391;-83
2021/06/05 09:58:45;;;;;;;17.17;12.52;;;;;;;;;;6287344;28;20128;-83
2021/06/05 10:02:05;;;;;;;15.05;10.57;;;;;;;;;;6293029;28;20113;-83
2021/06/05 10:05:39;;;;;;;14.93;10.45;;;;;;;;;;6270595;28;20055;-83
2021/06/05 10:08:42;;;;;;;16.23;11.05;;;;;;;;;;6273918;28;20048;-82
2021/06/05 10:11:45;;;;;;;15.90;10.52;;;;;;;;;;6268077;28;20088;-82
2021/06/05 10:14:54;;;;;;;14.25;10.35;;;;;;;;;;6252751;28;20041;-84
2021/06/05 10:18:02;;;;;;;16.23;10.60;;;;;;;;;;6266076;28;20135;-82
2021/06/05 10:21:14;;;;;;;15.63;10.80;;;;;;;;;;6271147;28;20054;-83
2021/06/05 10:24:30;;;;;;;14.23;10.20;;;;;;;;;;6250159;28;20042;-83
2021/06/05 10:27:36;;;;;;;14.77;9.98;;;;;;;;;;6249586;28;20045;-82
2021/06/05 10:30:47;;;;;;;15.93;9.80;;;;;;;;;;6256837;28;20473;-82
2021/06/05 10:34:02;;;;;;;14.05;10.15;;;;;;;;;;6239720;28;20047;-83
2021/06/05 10:37:05;;;;;;;14.23;10.55;;;;;;;;;;6278894;28;20045;-83
2021/06/05 10:40:12;;;;;;;;;;;;;;;;;;6243015;28;20693;-84
2021/06/05 10:43:15;;;;;;;17.73;11.70;;;;;;;;;;6241454;28;19952;-82
2021/06/05 10:46:20;;;;;;;16.70;11.32;;;;;;;;;;6253973;28;20092;-83
2021/06/05 10:49:38;;;;;;;17.65;11.55;;;;;;;;;;6250421;28;20754;-83
2021/06/05 10:52:40;;;;;;;16.70;11.43;;;;;;;;;;6250461;28;20042;-85
2021/06/05 10:55:50;;;;;;;16.20;11.80;;;;;;;;;;6233585;28;20052;-85
2021/06/05 10:58:53;;;;;;;15.23;11.55;;;;;;;;;;6259168;28;20045;-83
2021/06/05 11:01:55;;;;;;;14.82;11.05;;;;;;;;;;6267899;28;20048;-82
2021/06/05 11:04:57;;;;;;;15.32;10.77;;;;;;;;;;6251047;28;20049;-84
2021/06/05 11:08:07;;;;;;;18.60;11.80;;;;;;;;;;6251208;28;20465;-82
2021/06/05 11:11:09;;;;;;;17.20;11.52;;;;;;;;;;6272503;28;20443;-83
2021/06/05 11:14:19;;;;;;;17.63;12.18;;;;;;;;;;6269492;28;20045;-83
2021/06/05 11:17:25;;;;;;;19.00;11.85;;;;;;;;;;6272544;28;20047;-83
2021/06/05 11:20:33;;;;;;;17.52;12.10;;;;;;;;;;6278193;28;20124;-82
2021/06/05 11:23:35;;;;;;;16.75;11.57;;;;;;;;;;6265590;28;20502;-85
2021/06/05 11:26:39;;;;;;;20.33;12.23;;;;;;;;;;6253656;28;20042;-83
2021/06/05 11:29:45;;;;;;;18.70;12.32;;;;;;;;;;6253760;28;20037;-85
2021/06/05 11:32:56;;;;;;;19.05;11.48;;;;;;;;;;6241590;28;20046;-84
2021/06/05 11:36:00;;;;;;;18.63;12.18;;;;;;;;;;6232007;28;20072;-84
2021/06/05 11:39:07;;;;;;;17.70;11.27;;;;;;;;;;6235488;28;20506;-85
2021/06/05 11:42:20;;;;;;;15.30;10.88;;;;;;;;;;6271050;28;20051;-84
2021/06/05 11:45:22;;;;;;;16.80;10.65;;;;;;;;;;6271191;28;20040;-84
2021/06/05 11:48:49;;;;;;;16.05;10.95;;;;;;;;;;6258243;28;20068;-86
2021/06/05 11:51:51;;;;;;;14.95;11.18;;;;;;;;;;6252208;28;20041;-85
2021/06/05 11:54:59;;;;;;;16.13;11.02;;;;;;;;;;6247785;28;20038;-84
2021/06/05 11:58:19;;;;;;;15.77;10.48;;;;;;;;;;6219381;28;20611;-83
2021/06/05 12:01:27;;;;;;;16.92;11.82;;;;;;;;;;6219181;28;20052;-84
2021/06/05 12:04:35;;;;;;;16.08;11.13;;;;;;;;;;6267844;28;20056;-85
2021/06/05 12:07:41;;;;;;;15.23;10.90;;;;;;;;;;6272445;28;20656;-84
2021/06/05 12:10:42;;;;;;;16.75;11.40;;;;;;;;;;6269262;28;20065;-85
2021/06/05 12:13:44;;;;;;;16.02;11.32;;;;;;;;;;6270099;28;20504;-85
2021/06/05 12:16:53;;;;;;;15.77;10.67;;;;;;;;;;6254062;28;20041;-84
2021/06/05 12:20:28;;;;;;;15.75;11.65;;;;;;;;;;6252420;28;20055;-84
2021/06/05 12:23:33;;;;;;;14.75;10.55;;;;;;;;;;6208764;28;20101;-84
2021/06/05 12:27:05;;;;;;;13.73;9.95;;;;;;;;;;6275760;28;20056;-84
2021/06/05 12:30:24;;;;;;;14.38;11.10;;;;;;;;;;6274476;28;20426;-84
2021/06/05 12:33:31;;;;;;;17.88;12.55;;;;;;;;;;6263406;28;20048;-82
2021/06/05 12:36:39;;;;;;;18.02;12.70;;;;;;;;;;6254154;28;20125;-84
2021/06/05 12:39:52;;;;;;;17.00;11.70;;;;;;;;;;6241253;28;20046;-86
2021/06/05 12:42:54;;;;;;;17.15;11.25;;;;;;;;;;6223462;28;20102;-85
2021/06/05 12:46:01;;;;;;;15.82;11.07;;;;;;;;;;6228756;28;20045;-85
2021/06/05 12:49:06;;;;;;;14.93;10.93;;;;;;;;;;6270493;28;20136;-85
2021/06/05 12:52:17;;;;;;;16.30;10.88;;;;;;;;;;6275621;28;20045;-84
2021/06/05 12:55:19;;;;;;;16.50;11.38;;;;;;;;;;6272013;28;20037;-82
2021/06/05 12:58:34;;;;;;;17.45;11.15;;;;;;;;;;6274230;28;20105;-85
2021/06/05 13:01:39;;;;;;;20.17;12.02;;;;;;;;;;6255905;28;20048;-85
2021/06/05 13:04:41;;;;;;;15.55;10.60;;;;;;;;;;6238250;28;20056;-84
2021/06/05 13:07:45;;;;;;;14.55;9.73;;;;;;;;;;6241120;28;20048;-84
2021/06/05 13:10:54;;;;;;;15.43;10.13;;;;;;;;;;6237852;28;20065;-83
2021/06/05 13:14:27;;;;;;;15.88;10.68;;;;;;;;;;6221490;28;20128;-85
2021/06/05 13:17:33;;;;;;;15.20;10.10;;;;;;;;;;6233789;28;20513;-81
2021/06/05 13:20:41;;;;;;;17.75;11.20;;;;;;;;;;6204861;28;20048;-83
2021/06/05 13:23:44;;;;;;;21.15;13.50;;;;;;;;;;6217505;28;20467;-82
2021/06/05 13:26:56;;;;;;;22.30;13.52;;;;;;;;;;6250255;28;20094;-83
2021/06/05 13:30:20;;;;;;;24.15;14.63;;;;;;;;;;6221457;28;20388;-82
2021/06/05 13:33:33;;;;;;;20.08;14.07;;;;;;;;;;6220695;28;20125;-84
2021/06/05 13:36:35;;;;;;;22.60;15.48;;;;;;;;;;6235793;28;20052;-84
2021/06/05 13:39:38;;;;;;;25.05;15.07;;;;;;;;;;6246721;28;20570;-87
2021/06/05 13:42:45;;;;;;;21.27;14.80;;;;;;;;;;6248716;28;20095;-83
2021/06/05 13:45:47;;;;;;;21.73;14.30;;;;;;;;;;6248127;28;20113;-82
2021/06/05 13:48:48;;;;;;;20.67;14.48;;;;;;;;;;6272227;28;20066;-83
2021/06/05 13:51:50;;;;;;;18.55;13.00;;;;;;;;;;6271808;28;20131;-85
2021/06/05 13:54:52;;;;;;;16.83;13.13;;;;;;;;;;6271512;28;20451;-84
2021/06/05 13:57:54;;;;;;;17.13;13.15;;;;;;;;;;6274195;28;20040;-83
2021/06/05 14:00:57;;;;;;;20.50;13.38;;;;;;;;;;6253682;28;20044;-84
2021/06/05 14:03:59;;;;;;;17.52;12.25;;;;;;;;;;6269848;28;20060;-85
2021/06/05 14:07:01;;;;;;;17.70;12.10;;;;;;;;;;6253076;28;20417;-87
2021/06/05 14:10:04;;;;;;;18.00;12.43;;;;;;;;;;6248884;28;20142;-84
2021/06/05 14:13:06;;;;;;;17.27;12.07;;;;;;;;;;6236544;28;20137;-85
2021/06/05 14:16:08;;;;;;;15.63;11.95;;;;;;;;;;6235144;28;20444;-85
2021/06/05 14:19:10;;;;;;;16.00;12.55;;;;;;;;;;6240742;28;20148;-85
2021/06/05 14:22:13;;;;;;;19.60;12.97;;;;;;;;;;6254812;28;20042;-85
2021/06/05 14:25:16;;;;;;;16.20;11.57;;;;;;;;;;6243996;28;20115;-83
2021/06/05 14:28:20;;;;;;;18.95;12.20;;;;;;;;;;6228297;28;20458;-84
2021/06/05 14:31:22;;;;;;;18.67;13.07;;;;;;;;;;6230402;28;20483;-84
2021/06/05 14:34:25;;;;;;;17.23;12.88;;;;;;;;;;6266588;28;20049;-83
2021/06/05 14:37:26;;;;;;;;;;;;;;;;;;6268297;28;20073;-83
2021/06/05 14:40:28;;;;;;;16.65;11.80;;;;;;;;;;6256723;28;19990;-85
2021/06/05 14:43:31;;;;;;;15.98;12.40;;;;;;;;;;6259409;28;20072;-84
2021/06/05 14:46:34;;;;;;;16.13;12.52;;;;;;;;;;6273605;28;20106;-84
2021/06/05 14:49:36;;;;;;;16.00;12.40;;;;;;;;;;6292029;28;20059;-84
2021/06/05 14:52:38;;;;;;;16.05;11.82;;;;;;;;;;6282481;28;20044;-85
2021/06/05 14:55:42;;;;;;;15.77;12.03;;;;;;;;;;6268522;28;20422;-85
2021/06/05 14:58:43;;;;;;;16.55;11.35;;;;;;;;;;6236947;28;20467;-84
2021/06/05 15:01:46;;;;;;;15.82;12.15;;;;;;;;;;6225733;28;20089;-83
2021/06/05 15:04:49;;;;;;;15.13;12.15;;;;;;;;;;6239003;28;20552;-83
2021/06/05 15:07:55;;;;;;;15.52;11.73;;;;;;;;;;6255266;28;20107;-84
2021/06/05 15:10:57;;;;;;;14.82;11.82;;;;;;;;;;6237874;28;20073;-84
2021/06/05 15:14:04;;;;;;;14.82;11.55;;;;;;;;;;6258691;28;20509;-83
2021/06/05 15:17:06;;;;;;;14.07;10.80;;;;;;;;;;6255075;28;20045;-84
2021/06/05 15:20:10;;;;;;;15.00;12.30;;;;;;;;;;6238300;28;20034;-84
2021/06/05 15:23:13;;;;;;;15.63;12.52;;;;;;;;;;6245231;28;20152;-84
2021/06/05 15:26:15;;;;;;;15.23;12.35;;;;;;;;;;6254433;28;20046;-83
2021/06/05 15:29:17;;;;;;;19.65;13.30;;;;;;;;;;6240388;28;20121;-84
2021/06/05 15:32:19;;;;;;;17.83;13.02;;;;;;;;;;6245981;28;20053;-83
2021/06/05 15:35:22;;;;;;;16.17;12.30;;;;;;;;;;6253137;28;20056;-83
2021/06/05 15:38:32;;;;;;;16.25;13.40;;;;;;;;;;6256531;28;20041;-83
2021/06/05 15:41:34;;;;;;;15.32;12.68;;;;;;;;;;6221042;28;20139;-84
2021/06/05 15:44:36;;;;;;;16.75;13.15;;;;;;;;;;6222698;28;20046;-83
2021/06/05 15:47:37;;;;;;;17.20;13.77;;;;;;;;;;6242835;28;20104;-82
2021/06/05 15:50:40;;;;;;;17.48;13.98;;;;;;;;;;6245121;28;20440;-84
2021/06/05 15:53:42;;;;;;;18.40;13.32;;;;;;;;;;6247010;28;20048;-83
2021/06/05 15:56:45;;;;;;;18.05;14.02;;;;;;;;;;6271337;28;20112;-83
2021/06/05 15:59:46;;;;;;;16.95;13.55;;;;;;;;;;6270712;28;20121;-84
2021/06/05 16:02:48;;;;;;;16.65;14.45;;;;;;;;;;6261112;28;20065;-84
2021/06/05 16:05:50;;;;;;;20.10;15.63;;;;;;;;;;6217944;28;20108;-84
2021/06/05 16:08:53;;;;;;;20.30;14.27;;;;;;;;;;6263485;28;20049;-82
2021/06/05 16:11:55;;;;;;;18.48;14.77;;;;;;;;;;6271968;28;20094;-84
2021/06/05 16:14:57;;;;;;;14.67;12.57;;;;;;;;;;6274180;28;20094;-86
2021/06/05 16:17:59;;;;;;;16.45;12.80;;;;;;;;;;6273927;28;20604;-82
2021/06/05 16:21:06;;;;;;;15.50;12.95;;;;;;;;;;6251293;28;20148;-83
2021/06/05 16:24:08;;;;;;;14.57;13.02;;;;;;;;;;6250331;28;20104;-82
2021/06/05 16:27:09;;;;;;;15.45;12.70;;;;;;;;;;6258232;28;20050;-83
2021/06/05 16:30:16;;;;;;;14.00;12.30;;;;;;;;;;6255255;28;20069;-84
2021/06/05 16:33:19;;;;;;;15.60;13.35;;;;;;;;;;6263609;28;20052;-84
2021/06/05 16:36:22;;;;;;;18.35;13.98;;;;;;;;;;6261842;28;20068;-84
2021/06/05 16:39:23;;;;;;;18.30;14.65;;;;;;;;;;6243690;28;20045;-84
2021/06/05 16:42:25;;;;;;;18.25;14.63;;;;;;;;;;6245697;28;20046;-83
2021/06/05 16:45:28;;;;;;;18.10;13.90;;;;;;;;;;6262956;28;20057;-84
2021/06/05 16:48:30;;;;;;;19.08;14.02;;;;;;;;;;6256956;28;20168;-84
2021/06/05 16:51:32;;;;;;;21.83;15.18;;;;;;;;;;6262310;28;20048;-84
2021/06/05 16:54:33;;;;;;;20.48;13.80;;;;;;;;;;6273147;28;20047;-83
2021/06/05 16:57:36;;;;;;;18.73;13.60;;;;;;;;;;6263507;28;20083;-83
2021/06/05 17:00:45;;;;;;;20.85;15.05;;;;;;;;;;6248128;28;20056;-83
2021/06/05 17:03:47;;;;;;;21.98;15.23;;;;;;;;;;6266215;28;20063;-84
2021/06/05 17:06:48;;;;;;;23.48;16.52;;;;;;;;;;6237870;28;20042;-84
2021/06/05 17:09:50;;;;;;;20.67;15.82;;;;;;;;;;6249443;28;20046;-82
2021/06/05 17:12:53;;;;;;;22.83;16.38;;;;;;;;;;6223803;28;20053;-83
2021/06/05 17:15:55;;;;;;;27.30;18.17;;;;;;;;;;6221871;28;20046;-83
2021/06/05 17:18:57;;;;;;;30.17;19.40;;;;;;;;;;6240966;28;20037;-82
2021/06/05 17:22:00;;;;;;;38.83;23.87;;;;;;;;;;6271596;28;20401;-83
2021/06/05 17:25:05;;;;;;;36.05;21.55;;;;;;;;;;6258817;28;20041;-82
2021/06/05 17:28:08;;;;;;;38.85;22.58;;;;;;;;;;6247257;28;20049;-83
2021/06/05 17:31:11;;;;;;;37.88;22.67;;;;;;;;;;6256569;28;20052;-82
2021/06/05 17:34:13;;;;;;;39.60;22.65;;;;;;;;;;6248700;28;20483;-83
2021/06/05 17:37:15;;;;;;;42.07;24.30;;;;;;;;;;6220912;28;20150;-83
2021/06/05 17:40:21;;;;;;;46.13;25.43;;;;;;;;;;6256858;28;20063;-83
2021/06/05 17:43:26;;;;;;;45.88;27.20;;;;;;;;;;6266416;28;20033;-83
2021/06/05 17:46:27;;;;;;;48.35;26.35;;;;;;;;;;6257301;28;20048;-82
2021/06/05 17:49:29;;;;;;;54.15;28.00;;;;;;;;;;6229781;28;20049;-83
2021/06/05 17:52:31;;;;;;;53.22;27.85;;;;;;;;;;6216090;28;20077;-82
2021/06/05 17:55:33;;;;;;;52.28;28.65;;;;;;;;;;6248095;28;20040;-82
2021/06/05 17:58:36;;;;;;;57.50;28.92;;;;;;;;;;6249066;28;20185;-82
2021/06/05 18:01:38;;;;;;;51.88;27.38;;;;;;;;;;6238298;28;20041;-82
2021/06/05 18:04:41;;;;;;;52.40;27.58;;;;;;;;;;6230103;28;20057;-81
2021/06/05 18:07:44;;;;;;;55.38;28.23;;;;;;;;;;6254213;28;20375;-82